createdAt,value
2024-03-01T00:01:03.283Z,149708.63
2024-03-01T00:06:05.289Z,149659.84
2024-03-01T00:11:07.363Z,149690.63
2024-03-01T00:16:09.072Z,149738.19
2024-03-01T00:21:17.635Z,149713.75
2024-03-01T00:26:19.429Z,149747.16
2024-03-01T00:31:21.219Z,149763.88
2024-03-01T00:36:22.953Z,149695.78
2024-03-01T00:41:24.656Z,149662.41
2024-03-01T00:46:26.577Z,149745.88
2024-03-01T00:51:28.418Z,149774.16
2024-03-01T00:56:30.136Z,149834.53
2024-03-01T01:01:31.951Z,149752.31
2024-03-01T01:06:33.658Z,149677.78
2024-03-01T01:11:35.418Z,149708.63
2024-03-01T01:16:37.222Z,149736.88
2024-03-01T01:21:39.019Z,149673.97
2024-03-01T01:26:40.897Z,149613.56
2024-03-01T01:31:42.634Z,149654.69
2024-03-01T01:36:44.513Z,149685.50
2024-03-01T01:41:46.567Z,149697.06
2024-03-01T01:46:52.064Z,149629.00
2024-03-01T01:51:54.389Z,149599.44
2024-03-01T01:56:56.461Z,149577.63
2024-03-01T02:01:59.580Z,149627.72
2024-03-01T02:07:01.452Z,149643.13
2024-03-01T02:12:03.658Z,149617.44
2024-03-01T02:17:05.598Z,149622.56
2024-03-01T02:22:13.105Z,149653.41
2024-03-01T02:27:14.835Z,149652.13
2024-03-01T02:32:16.602Z,149572.50
2024-03-01T02:37:18.337Z,149554.50
2024-03-01T02:42:20.024Z,149463.38
2024-03-01T02:47:21.711Z,149489.03
2024-03-01T02:52:23.521Z,149465.94
2024-03-01T02:57:25.197Z,149426.16
2024-03-01T03:02:27.580Z,149390.19
2024-03-01T03:07:29.301Z,149404.34
2024-03-01T03:12:31.262Z,149388.91
2024-03-01T03:17:32.983Z,149326.06
2024-03-01T03:29:21.644Z,149436.44
2024-03-01T03:34:23.442Z,149451.81
2024-03-01T03:39:25.206Z,149409.47
2024-03-01T03:44:26.869Z,149349.16
2024-03-01T03:49:28.807Z,149374.81
2024-03-01T03:54:31.789Z,149310.66
2024-03-01T03:59:33.511Z,149273.47
2024-03-01T04:04:35.770Z,149362.00
2024-03-01T04:09:37.791Z,149372.25
2024-03-01T04:14:39.489Z,149290.13
2024-03-01T04:19:41.166Z,149340.16
2024-03-01T04:24:44.849Z,149350.44
2024-03-01T04:29:46.537Z,149231.13
2024-03-01T04:34:48.552Z,149341.44
2024-03-01T04:39:50.263Z,149295.28
2024-03-01T04:44:52.099Z,149206.75
2024-03-01T04:49:53.786Z,149177.25
2024-03-01T04:54:55.467Z,149161.88
2024-03-01T04:59:57.190Z,149158.06
2024-03-01T05:04:58.940Z,149219.56
2024-03-01T05:10:00.895Z,149208.03
2024-03-01T05:15:05.453Z,149159.31
2024-03-01T05:20:15.454Z,149236.28
2024-03-01T05:25:17.978Z,149292.72
2024-03-01T05:30:36.077Z,149251.66
2024-03-01T05:35:46.960Z,149267.03
2024-03-01T05:40:52.514Z,149349.16
2024-03-01T05:45:58.968Z,149313.19
2024-03-01T05:51:00.811Z,149232.41
2024-03-01T05:56:02.770Z,149224.75
2024-03-01T06:01:05.501Z,149236.28
2024-03-01T06:06:09.828Z,149311.91
2024-03-01T06:11:11.977Z,149247.81
2024-03-01T06:16:13.776Z,149252.94
2024-03-01T06:21:22.848Z,149364.53
2024-03-01T06:26:24.642Z,149464.66
2024-03-01T06:31:26.403Z,149396.63
2024-03-01T06:36:28.225Z,149474.91
2024-03-01T06:41:30.051Z,149468.47
2024-03-01T06:46:32.034Z,149519.84
2024-03-01T06:51:33.740Z,149572.50
2024-03-01T06:56:40.620Z,149745.88
2024-03-01T07:01:42.493Z,149797.28
2024-03-01T07:06:44.315Z,149812.69
2024-03-01T07:11:46.065Z,149828.13
2024-03-01T07:16:47.773Z,149819.13
2024-03-01T07:21:49.484Z,149883.41
2024-03-01T07:26:51.179Z,149847.38
2024-03-01T07:31:53.837Z,149912.94
2024-03-01T07:36:55.552Z,149947.66
2024-03-01T07:41:57.370Z,149978.50
2024-03-01T07:46:59.491Z,150101.97
2024-03-01T07:52:02.958Z,150027.41
2024-03-01T07:57:04.893Z,149991.38
2024-03-01T08:02:09.892Z,150006.81
2024-03-01T08:07:14.950Z,150074.97
2024-03-01T08:12:20.015Z,150101.97
2024-03-01T08:17:22.022Z,150137.97
2024-03-01T08:22:25.390Z,150174.09
2024-03-01T08:27:30.031Z,150183.03
2024-03-01T08:32:38.066Z,150252.56
2024-03-01T08:37:40.536Z,150324.63
2024-03-01T08:42:42.290Z,150349.06
2024-03-01T08:47:48.485Z,150379.97
2024-03-01T08:52:50.531Z,150418.63
2024-03-01T08:57:54.302Z,150449.50
2024-03-01T09:02:56.565Z,150452.09
2024-03-01T09:08:07.577Z,150477.84
2024-03-01T09:13:10.286Z,150441.81
2024-03-01T09:18:27.630Z,150458.50
2024-03-01T09:23:30.445Z,150434.06
2024-03-01T09:28:32.366Z,150412.16
2024-03-01T09:33:34.362Z,150455.94
2024-03-01T09:38:36.321Z,150529.34
2024-03-01T09:43:55.604Z,150582.16
2024-03-01T09:49:10.011Z,150596.31
2024-03-01T09:54:20.399Z,150683.94
2024-03-01T09:59:45.127Z,150651.72
2024-03-01T10:05:11.153Z,150713.59
2024-03-01T10:10:49.125Z,150678.81
2024-03-01T10:16:37.812Z,150754.84
2024-03-01T10:22:16.845Z,150803.84
2024-03-01T10:27:37.219Z,150888.97
2024-03-01T10:32:50.496Z,150952.13
2024-03-01T10:38:19.651Z,150988.22
2024-03-01T10:43:21.365Z,151042.41
2024-03-01T10:48:23.231Z,151034.72
2024-03-01T10:53:35.828Z,150998.56
2024-03-01T10:58:52.535Z,151069.53
2024-03-01T11:04:15.838Z,151123.72
2024-03-01T11:09:28.858Z,151095.31
2024-03-01T11:14:34.964Z,151170.19
2024-03-01T11:19:39.092Z,151168.91
2024-03-01T11:24:51.013Z,151174.03
2024-03-01T11:30:00.611Z,151206.31
2024-03-01T11:35:47.648Z,151278.63
2024-03-01T11:41:27.828Z,151339.31
2024-03-01T11:46:56.378Z,151371.63
2024-03-01T11:52:16.108Z,151318.66
2024-03-01T11:57:38.321Z,151396.13
2024-03-01T12:02:59.085Z,151409.06
2024-03-01T12:08:37.396Z,151393.56
2024-03-01T12:13:48.155Z,151402.56
2024-03-01T12:19:02.994Z,151397.44
2024-03-01T12:24:19.901Z,151425.88
2024-03-01T12:29:35.721Z,151464.59
2024-03-01T12:34:41.262Z,151460.72
2024-03-01T12:39:54.797Z,151516.28
2024-03-01T12:45:35.338Z,151579.56
2024-03-01T12:50:40.173Z,151553.72
2024-03-01T12:55:52.184Z,151606.72
2024-03-01T13:01:10.242Z,151587.31
2024-03-01T13:06:13.750Z,151629.97
2024-03-01T13:11:19.564Z,151618.34
2024-03-01T13:16:22.738Z,151659.72
2024-03-01T13:21:37.790Z,151624.78
2024-03-01T13:26:58.823Z,151681.69
2024-03-01T13:32:10.466Z,151591.19
2024-03-01T13:37:14.982Z,151677.84
2024-03-01T13:42:35.700Z,151676.53
2024-03-01T13:47:48.079Z,151692.03
2024-03-01T13:52:50.225Z,151702.38
2024-03-01T13:57:52.005Z,151726.94
2024-03-01T14:02:54.033Z,151717.91
2024-03-01T14:07:59.271Z,151680.41
2024-03-01T14:13:01.551Z,151675.25
2024-03-01T14:18:04.614Z,151640.31
2024-03-01T14:23:08.820Z,151697.22
2024-03-01T14:28:10.948Z,151648.03
2024-03-01T14:33:22.637Z,151624.78
2024-03-01T14:38:26.213Z,151575.69
2024-03-01T14:43:29.672Z,151662.34
2024-03-01T14:48:34.251Z,151596.38
2024-03-01T14:53:47.191Z,151431.00
2024-03-01T14:58:51.348Z,151390.94
2024-03-01T15:03:53.407Z,151363.84
2024-03-01T15:08:55.479Z,151454.25
2024-03-01T15:14:07.795Z,151431.00
2024-03-01T15:19:14.542Z,151472.34
2024-03-01T15:24:20.196Z,151493.03
2024-03-01T15:29:21.916Z,151562.78
2024-03-01T15:34:24.010Z,151465.88
2024-03-01T15:39:25.676Z,151429.72
2024-03-01T15:44:27.391Z,151424.53
2024-03-01T15:49:29.178Z,151405.19
2024-03-01T15:54:30.900Z,151397.44
2024-03-01T15:59:32.704Z,151383.22
2024-03-01T16:04:34.388Z,151378.03
2024-03-01T16:09:36.856Z,151380.66
2024-03-01T16:14:47.502Z,151317.38
2024-03-01T16:19:49.567Z,151279.94
2024-03-01T16:24:51.989Z,151285.09
2024-03-01T16:29:56.900Z,151248.91
2024-03-01T16:35:01.109Z,151174.03
2024-03-01T16:40:06.856Z,151170.19
2024-03-01T16:45:28.970Z,151126.31
2024-03-01T16:50:30.698Z,151125.00
2024-03-01T16:55:47.615Z,151141.78
2024-03-01T17:00:49.633Z,151036.00
2024-03-01T17:05:52.524Z,150989.56
2024-03-01T17:10:54.771Z,151034.72
2024-03-01T17:15:56.878Z,151007.59
2024-03-01T17:20:58.669Z,150967.63
2024-03-01T17:26:00.765Z,150945.72
2024-03-01T17:31:02.577Z,150975.34
2024-03-01T17:36:04.595Z,150980.53
2024-03-01T17:41:06.340Z,150972.78
2024-03-01T17:46:08.127Z,150962.44
2024-03-01T17:51:09.993Z,150943.09
2024-03-01T17:56:12.342Z,150923.78
2024-03-01T18:01:14.685Z,150907.00
2024-03-01T18:06:16.469Z,150903.13
2024-03-01T18:11:18.446Z,150901.84
2024-03-01T18:16:21.292Z,150948.28
2024-03-01T18:21:22.973Z,150916.03
2024-03-01T18:26:24.608Z,150892.81
2024-03-01T18:31:26.462Z,150910.88
2024-03-01T18:36:28.226Z,150882.50
2024-03-01T18:41:29.936Z,150901.84
2024-03-01T18:46:31.875Z,150895.38
2024-03-01T18:51:34.450Z,150877.38
2024-03-01T18:56:36.248Z,150868.34
2024-03-01T19:01:38.379Z,150842.50
2024-03-01T19:06:40.483Z,150811.59
2024-03-01T19:11:42.593Z,150794.81
2024-03-01T19:16:44.519Z,150805.13
2024-03-01T19:21:47.915Z,150843.84
2024-03-01T19:26:49.612Z,150921.22
2024-03-01T19:31:51.630Z,150885.06
2024-03-01T19:36:53.479Z,150798.72
2024-03-01T19:41:55.211Z,150763.84
2024-03-01T19:46:58.601Z,150800.00
2024-03-01T19:52:00.628Z,150790.97
2024-03-01T19:57:04.439Z,150775.47
2024-03-01T20:02:09.588Z,150741.91
2024-03-01T20:07:11.425Z,150721.34
2024-03-01T20:12:13.292Z,150712.31
2024-03-01T20:17:15.027Z,150780.66
2024-03-01T20:22:16.809Z,150702.00
2024-03-01T20:27:19.193Z,150713.59
2024-03-01T20:32:21.152Z,150718.72
2024-03-01T20:37:23.043Z,150711.03
2024-03-01T20:42:25.387Z,150711.03
2024-03-01T20:47:27.116Z,150718.72
2024-03-01T20:52:28.898Z,150753.56
2024-03-01T20:57:34.368Z,150762.56
2024-03-01T21:02:36.893Z,150754.84
2024-03-01T21:07:39.823Z,150753.56
2024-03-01T21:12:41.729Z,150694.25
2024-03-01T21:17:49.704Z,150673.63
2024-03-01T21:22:54.357Z,150696.81
2024-03-01T21:27:56.405Z,150673.63
2024-03-01T21:33:02.044Z,150683.94
2024-03-01T21:38:04.887Z,150644.00
2024-03-01T21:43:07.343Z,150642.72
2024-03-01T21:48:09.398Z,150616.94
2024-03-01T21:53:11.299Z,150624.69
2024-03-01T21:58:13.282Z,150606.63
2024-03-01T22:03:15.076Z,150595.03
2024-03-01T22:08:16.834Z,150596.31
2024-03-01T22:13:18.502Z,150632.44
2024-03-01T22:18:20.343Z,150609.25
2024-03-01T22:23:22.676Z,150595.03
2024-03-01T22:28:24.517Z,150577.03
2024-03-01T22:33:26.433Z,150568.00
2024-03-01T22:38:28.292Z,150565.44
2024-03-01T22:43:30.257Z,150606.63
2024-03-01T22:48:32.759Z,150645.31
2024-03-01T22:53:35.545Z,150592.47
2024-03-01T22:58:41.818Z,150552.56
2024-03-01T23:03:44.421Z,150562.81
2024-03-01T23:08:53.112Z,150558.97
2024-03-01T23:13:54.814Z,150552.56
2024-03-01T23:18:59.841Z,150597.66
2024-03-01T23:24:01.680Z,150583.44
2024-03-01T23:29:03.839Z,150659.47
2024-03-01T23:34:05.550Z,150632.44
2024-03-01T23:39:09.598Z,150663.31
2024-03-01T23:44:11.662Z,150635.00
2024-03-01T23:49:13.659Z,150632.44
2024-03-01T23:54:15.616Z,150651.72
2024-03-01T23:59:17.586Z,150614.38
